Time;durP1;ratioP1;P1;durP2;ratioP2;P2;SDS_P1;SDS_P2;PMS_P1;PMS_P2;Temp;Humidity;BMP_temperature;BMP_pressure;BME280_temperature;BME280_humidity;BME280_pressure;Samples;Min_cycle;Max_cycle;Signal;HPM_P1;HPM_P2
2021/04/19 00:01:43;;;;;;;22.50;14.40;;;8.50;99.90;;;;;;4996786;28;20241;-64
2021/04/19 00:04:11;;;;;;;21.53;15.20;;;8.40;99.90;;;;;;4995956;28;20240;-63
2021/04/19 00:06:41;;;;;;;23.08;15.07;;;8.40;99.90;;;;;;4996853;28;20186;-63
2021/04/19 00:09:06;;;;;;;24.80;14.98;;;8.40;99.90;;;;;;4997059;28;20265;-62
2021/04/19 00:11:33;;;;;;;24.90;14.70;;;8.30;99.90;;;;;;4997640;28;20266;-63
2021/04/19 00:13:59;;;;;;;23.77;15.80;;;8.40;99.90;;;;;;4998252;28;20183;-63
2021/04/19 00:16:24;;;;;;;27.57;16.13;;;8.40;99.90;;;;;;4998428;28;20182;-63
2021/04/19 00:18:50;;;;;;;27.17;16.83;;;8.40;99.90;;;;;;4997583;28;20762;-63
2021/04/19 00:21:16;;;;;;;24.27;17.20;;;8.20;99.90;;;;;;4997169;28;20183;-63
2021/04/19 00:23:41;;;;;;;26.10;16.60;;;8.30;99.90;;;;;;4996668;28;20539;-64
2021/04/19 00:26:07;;;;;;;33.93;16.23;;;8.30;99.90;;;;;;4997138;28;20199;-63
2021/04/19 00:28:33;;;;;;;30.77;15.43;;;8.60;99.90;;;;;;4996946;28;20186;-62
2021/04/19 00:30:58;;;;;;;26.07;15.50;;;8.60;99.90;;;;;;4996852;28;20187;-64
2021/04/19 00:33:24;;;;;;;27.80;17.67;;;8.80;99.90;;;;;;4994941;28;20321;-63
2021/04/19 00:35:50;;;;;;;25.30;17.83;;;8.90;99.90;;;;;;4996331;28;20183;-63
2021/04/19 00:38:15;;;;;;;28.00;17.03;;;8.60;99.90;;;;;;4996235;28;20781;-64
2021/04/19 00:40:41;;;;;;;26.20;17.30;;;8.90;99.90;;;;;;4995931;28;20179;-64
2021/04/19 00:43:08;;;;;;;29.33;17.80;;;9.00;99.90;;;;;;4995813;28;20210;-62
2021/04/19 00:45:34;;;;;;;24.65;17.95;;;8.90;99.90;;;;;;4996487;28;20755;-63
2021/04/19 00:48:00;;;;;;;24.63;16.88;;;8.30;99.90;;;;;;4996169;28;20275;-63
2021/04/19 00:50:30;;;;;;;27.55;18.33;;;8.30;99.90;;;;;;4996416;28;20619;-63
2021/04/19 00:52:56;;;;;;;24.55;17.70;;;8.20;99.90;;;;;;4995925;28;20179;-63
2021/04/19 00:55:22;;;;;;;29.83;17.83;;;8.10;99.90;;;;;;4995597;28;20183;-63
2021/04/19 00:57:48;;;;;;;32.57;17.67;;;8.10;99.90;;;;;;4995646;28;20213;-64
2021/04/19 01:00:22;;;;;;;28.60;17.60;;;8.30;99.90;;;;;;4995571;28;20241;-64
2021/04/19 01:02:48;;;;;;;33.35;19.02;;;8.30;99.90;;;;;;4995558;28;20612;-64
2021/04/19 01:05:18;;;;;;;29.33;19.70;;;8.20;99.90;;;;;;4994909;28;20621;-63
2021/04/19 01:07:44;;;;;;;30.75;19.70;;;8.40;99.90;;;;;;4995015;28;20173;-62
2021/04/19 01:10:10;;;;;;;26.70;17.47;;;8.40;99.90;;;;;;4994858;28;20182;-62
2021/04/19 01:12:36;;;;;;;28.57;18.27;;;8.50;99.90;;;;;;4994920;28;20217;-62
2021/04/19 01:15:02;;;;;;;36.07;18.80;;;8.40;99.90;;;;;;4994360;28;20436;-62
2021/04/19 01:17:27;;;;;;;26.58;18.75;;;8.30;99.90;;;;;;4995160;28;20238;-63
2021/04/19 01:19:53;;;;;;;34.13;18.83;;;8.20;99.90;;;;;;4994521;28;20218;-63
2021/04/19 01:22:19;;;;;;;27.90;18.87;;;8.30;99.90;;;;;;4994361;28;20218;-63
2021/04/19 01:24:44;;;;;;;32.47;20.53;;;8.40;99.90;;;;;;4995035;28;20235;-64
2021/04/19 01:27:10;;;;;;;27.73;19.03;;;8.60;99.90;;;;;;4995090;28;20426;-63
2021/04/19 01:29:36;;;;;;;33.30;19.73;;;8.50;99.90;;;;;;4995024;28;20189;-63
2021/04/19 01:32:01;;;;;;;29.33;19.20;;;8.40;99.90;;;;;;4994765;28;20179;-62
2021/04/19 01:34:27;;;;;;;30.43;20.77;;;8.40;99.90;;;;;;4994689;28;20191;-64
2021/04/19 01:36:53;;;;;;;31.33;20.93;;;8.40;99.90;;;;;;4995235;28;20183;-64
2021/04/19 01:39:18;;;;;;;32.93;20.43;;;8.50;99.90;;;;;;4994892;28;20179;-63
2021/04/19 01:41:47;;;;;;;33.87;20.63;;;8.60;99.90;;;;;;4994713;28;20637;-62
2021/04/19 01:44:14;;;;;;;29.00;20.27;;;8.60;99.90;;;;;;4994246;28;20207;-62
2021/04/19 01:46:41;;;;;;;31.20;20.73;;;8.50;99.90;;;;;;4994986;28;20214;-63
2021/04/19 01:49:15;;;;;;;33.25;20.08;;;8.40;99.90;;;;;;4994964;28;20179;-63
2021/04/19 01:51:41;;;;;;;36.53;22.55;;;8.40;99.90;;;;;;4994661;28;20179;-63
2021/04/19 01:54:06;;;;;;;38.27;22.97;;;8.30;99.90;;;;;;4993535;28;20266;-63
2021/04/19 01:56:32;;;;;;;34.80;22.60;;;8.20;99.90;;;;;;4994282;28;20179;-64
2021/04/19 01:58:59;;;;;;;36.00;21.20;;;8.20;99.90;;;;;;4994671;28;20439;-64
2021/04/19 02:01:25;;;;;;;38.63;23.60;;;8.30;99.90;;;;;;4994350;28;20214;-64
2021/04/19 02:04:15;;;;;;;38.60;22.60;;;8.40;99.90;;;;;;4993891;28;20246;-64
2021/04/19 02:07:01;;;;;;;31.95;21.40;;;8.30;99.90;;;;;;4994311;28;20213;-61
2021/04/19 02:09:34;;;;;;;39.95;20.42;;;8.20;99.90;;;;;;4994129;28;20663;-63
2021/04/19 02:12:17;;;;;;;33.88;22.08;;;8.20;99.90;;;;;;5009587;28;20186;-62
2021/04/19 02:14:50;;;;;;;31.55;20.33;;;8.40;99.90;;;;;;4993852;28;20634;-62
2021/04/19 02:17:34;;;;;;;39.35;21.73;;;8.40;99.90;;;;;;4993875;28;20178;-62
2021/04/19 02:20:12;;;;;;;29.42;19.75;;;8.30;99.90;;;;;;4994305;28;20188;-62
2021/04/19 02:22:43;;;;;;;32.80;19.98;;;8.30;99.90;;;;;;4993996;28;20202;-62
2021/04/19 02:25:17;;;;;;;31.55;21.15;;;8.30;99.90;;;;;;4993543;28;20198;-62
2021/04/19 02:27:50;;;;;;;32.53;20.13;;;8.40;99.90;;;;;;4994210;28;20209;-60
2021/04/19 02:30:18;;;;;;;30.92;20.42;;;8.20;99.90;;;;;;4993757;28;20240;-60
2021/04/19 02:32:49;;;;;;;31.60;19.77;;;8.10;99.90;;;;;;4994156;28;20190;-60
2021/04/19 02:35:19;;;;;;;31.48;20.30;;;8.20;99.90;;;;;;4993572;28;20186;-61
2021/04/19 02:37:46;;;;;;;35.10;21.90;;;8.10;99.90;;;;;;4994431;28;20498;-61
2021/04/19 02:40:14;;;;;;;34.72;23.23;;;8.20;99.90;;;;;;4993672;28;20179;-61
2021/04/19 02:42:47;;;;;;;40.05;23.80;;;8.40;99.90;;;;;;4993892;28;20400;-60
2021/04/19 02:45:14;;;;;;;41.20;24.70;;;8.40;99.90;;;;;;4993284;28;20507;-60
2021/04/19 02:47:44;;;;;;;39.83;25.65;;;8.50;99.90;;;;;;4993574;28;20222;-60
2021/04/19 02:50:18;;;;;;;40.47;23.15;;;8.50;99.90;;;;;;4993433;28;20510;-60
2021/04/19 02:52:45;;;;;;;33.13;22.65;;;8.50;99.90;;;;;;4993604;28;20208;-60
2021/04/19 02:55:13;;;;;;;33.83;21.17;;;8.40;99.90;;;;;;4993096;28;20631;-60
2021/04/19 02:57:48;;;;;;;31.65;20.42;;;8.60;99.90;;;;;;4993510;28;20185;-62
2021/04/19 03:00:16;;;;;;;40.47;20.55;;;8.20;99.90;;;;;;4993569;28;20186;-60
2021/04/19 03:02:44;;;;;;;32.33;20.70;;;8.00;99.90;;;;;;4993478;28;20207;-60
2021/04/19 03:05:13;;;;;;;34.83;20.60;;;8.00;99.90;;;;;;4993096;28;20185;-64
2021/04/19 03:07:43;;;;;;;31.40;21.23;;;8.10;99.90;;;;;;4990088;28;20217;-62
2021/04/19 03:10:12;;;;;;;38.10;23.35;;;8.20;99.90;;;;;;4993637;28;20642;-62
2021/04/19 03:12:41;;;;;;;34.03;22.17;;;8.20;99.90;;;;;;4993181;28;20179;-64
2021/04/19 03:15:09;;;;;;;29.52;21.13;;;8.30;99.90;;;;;;4992836;28;20183;-62
2021/04/19 03:17:34;;;;;;;34.25;22.45;;;8.30;99.90;;;;;;4993306;28;20244;-62
2021/04/19 03:20:03;;;;;;;36.57;21.97;;;8.30;99.90;;;;;;4993259;28;20195;-62
2021/04/19 03:22:29;;;;;;;32.17;21.33;;;8.40;99.90;;;;;;4993271;28;20976;-60
2021/04/19 03:24:55;;;;;;;37.90;21.42;;;8.40;99.90;;;;;;4992629;28;20636;-60
2021/04/19 03:27:24;;;;;;;38.60;22.63;;;8.30;99.90;;;;;;4992238;28;20175;-60
2021/04/19 03:29:49;;;;;;;34.13;22.08;;;8.20;99.90;;;;;;4993079;28;20510;-60
2021/04/19 03:32:24;;;;;;;35.77;22.83;;;8.40;99.90;;;;;;4993366;28;20195;-60
2021/04/19 03:34:50;;;;;;;41.40;24.00;;;8.40;99.90;;;;;;4992621;28;20183;-61
2021/04/19 03:37:24;;;;;;;37.97;22.88;;;8.50;99.90;;;;;;4993151;28;20279;-60
2021/04/19 03:40:04;;;;;;;42.50;22.63;;;8.50;99.90;;;;;;4993309;28;20175;-60
2021/04/19 03:42:33;;;;;;;36.38;21.25;;;8.40;99.90;;;;;;4993180;28;20245;-60
2021/04/19 03:45:01;;;;;;;38.10;20.70;;;8.30;99.90;;;;;;4992342;28;20543;-62
2021/04/19 03:47:30;;;;;;;32.38;19.02;;;8.10;99.90;;;;;;4993051;28;20179;-62
2021/04/19 03:49:59;;;;;;;41.30;20.52;;;7.90;99.90;;;;;;4993115;28;20179;-62
2021/04/19 03:52:31;;;;;;;32.75;19.50;;;7.80;99.90;;;;;;4993026;28;20179;-62
2021/04/19 03:54:59;;;;;;;41.78;21.42;;;7.70;99.90;;;;;;4992507;28;20189;-62
2021/04/19 03:57:28;;;;;;;41.83;21.88;;;7.70;99.90;;;;;;4993031;28;20182;-62
2021/04/19 04:00:04;;;;;;;46.20;21.45;;;7.90;99.90;;;;;;4992742;28;20185;-62
2021/04/19 04:02:31;;;;;;;56.03;21.92;;;7.90;99.90;;;;;;5008281;28;20225;-62
2021/04/19 04:04:58;;;;;;;35.42;19.67;;;7.90;99.90;;;;;;4991836;28;20179;-62
2021/04/19 04:07:25;;;;;;;39.33;22.05;;;7.90;99.90;;;;;;4992720;28;20176;-62
2021/04/19 04:09:51;;;;;;;42.25;20.33;;;8.00;99.90;;;;;;4992795;28;20183;-62
2021/04/19 04:12:17;;;;;;;54.17;21.88;;;7.80;99.90;;;;;;4992967;28;20187;-62
2021/04/19 04:14:53;;;;;;;41.33;23.15;;;7.80;99.90;;;;;;4992103;28;20179;-62
2021/04/19 04:17:19;;;;;;;48.40;21.30;;;8.00;99.90;;;;;;4995542;28;20513;-62
2021/04/19 04:19:45;;;;;;;50.90;20.00;;;7.80;99.90;;;;;;4995250;28;20182;-62
2021/04/19 04:22:11;;;;;;;47.88;23.20;;;7.70;99.90;;;;;;4996143;28;20218;-62
2021/04/19 04:24:38;;;;;;;46.17;22.08;;;7.80;99.90;;;;;;4995613;28;20205;-64
2021/04/19 04:27:07;;;;;;;40.25;22.80;;;8.10;99.90;;;;;;4996182;28;20260;-63
2021/04/19 04:29:33;;;;;;;32.55;22.48;;;8.40;99.90;;;;;;4995805;28;20648;-64
2021/04/19 04:31:59;;;;;;;30.83;19.27;;;8.50;99.90;;;;;;4995260;28;20214;-63
2021/04/19 04:34:25;;;;;;;33.20;19.70;;;8.10;99.90;;;;;;4995740;28;20209;-63
2021/04/19 04:36:51;;;;;;;36.75;21.58;;;7.80;99.90;;;;;;4996219;28;20713;-64
2021/04/19 04:39:17;;;;;;;37.97;21.83;;;7.70;99.90;;;;;;4995048;28;20191;-63
2021/04/19 04:41:43;;;;;;;36.60;21.30;;;7.80;99.90;;;;;;4995895;28;20183;-63
2021/04/19 04:44:13;;;;;;;41.03;22.03;;;7.80;99.90;;;;;;4994994;28;20656;-63
2021/04/19 04:47:13;;;;;;;41.80;23.35;;;7.80;99.90;;;;;;4995592;28;20175;-63
2021/04/19 04:49:58;;;;;;;38.88;21.63;;;8.00;99.90;;;;;;4995442;28;20568;-64
2021/04/19 04:52:28;;;;;;;38.25;22.58;;;8.10;99.90;;;;;;4995521;28;20175;-63
2021/04/19 04:54:53;;;;;;;39.92;23.65;;;8.00;99.90;;;;;;4994665;28;20233;-63
2021/04/19 04:57:21;;;;;;;39.90;22.30;;;8.20;99.90;;;;;;4995744;28;20187;-63
2021/04/19 04:59:49;;;;;;;49.67;23.35;;;8.30;99.90;;;;;;4994632;28;20210;-63
2021/04/19 05:02:21;;;;;;;58.45;25.73;;;8.00;99.90;;;;;;4995812;28;20187;-63
2021/04/19 05:04:48;;;;;;;40.33;24.42;;;7.90;99.90;;;;;;4994962;28;20202;-63
2021/04/19 05:07:14;;;;;;;39.42;23.10;;;7.90;99.90;;;;;;4995203;28;20248;-63
2021/04/19 05:09:40;;;;;;;49.58;26.65;;;8.10;99.90;;;;;;4995685;28;20190;-63
2021/04/19 05:12:06;;;;;;;66.17;25.60;;;8.30;99.90;;;;;;4994239;28;20183;-63
2021/04/19 05:14:32;;;;;;;64.50;24.80;;;8.40;99.90;;;;;;4994602;28;20189;-63
2021/04/19 05:16:58;;;;;;;49.67;23.65;;;8.40;99.90;;;;;;4995274;28;20193;-63
2021/04/19 05:19:23;;;;;;;44.57;24.60;;;8.30;99.90;;;;;;4995707;28;20175;-63
2021/04/19 05:21:49;;;;;;;44.80;23.50;;;8.30;99.90;;;;;;4995023;28;20202;-64
2021/04/19 05:24:15;;;;;;;37.50;21.33;;;8.10;99.90;;;;;;4994202;28;20218;-63
2021/04/19 05:26:40;;;;;;;55.17;21.03;;;7.80;99.90;;;;;;4994471;28;20184;-64
2021/04/19 05:29:06;;;;;;;42.83;23.43;;;7.60;99.90;;;;;;4993983;28;20265;-63
2021/04/19 05:31:32;;;;;;;37.00;21.77;;;7.80;99.90;;;;;;4995464;28;20252;-63
2021/04/19 05:34:00;;;;;;;40.30;22.10;;;7.80;99.90;;;;;;4994695;28;20187;-63
2021/04/19 05:36:28;;;;;;;35.85;21.30;;;8.00;99.90;;;;;;4994792;28;20262;-63
2021/04/19 05:38:54;;;;;;;31.55;18.80;;;7.90;99.90;;;;;;4994706;28;20261;-64
2021/04/19 05:41:22;;;;;;;37.83;22.33;;;8.30;99.90;;;;;;4994662;28;20194;-63
2021/04/19 05:43:48;;;;;;;38.17;23.23;;;8.10;99.90;;;;;;4994125;28;20213;-63
2021/04/19 05:46:16;;;;;;;34.30;20.63;;;8.10;99.90;;;;;;4993593;28;20190;-63
2021/04/19 05:48:43;;;;;;;44.53;21.15;;;8.30;99.90;;;;;;4994075;28;20188;-63
2021/04/19 05:51:16;;;;;;;38.05;21.60;;;8.30;99.90;;;;;;4992276;28;20183;-63
2021/04/19 05:53:42;;;;;;;38.05;23.02;;;8.50;99.90;;;;;;4989786;28;20842;-63
2021/04/19 05:56:17;;;;;;;35.53;19.87;;;8.20;99.90;;;;;;4992040;28;20201;-62
2021/04/19 05:59:26;;;;;;;50.28;22.75;;;7.80;99.90;;;;;;5005551;28;20190;-63
2021/04/19 06:01:56;;;;;;;42.13;21.65;;;7.70;99.90;;;;;;5008770;28;20269;-63
2021/04/19 06:04:29;;;;;;;33.65;21.33;;;7.80;99.90;;;;;;5012934;28;20205;-63
2021/04/19 06:07:11;;;;;;;41.22;23.15;;;7.40;99.90;;;;;;4997595;28;20189;-62
2021/04/19 06:09:42;;;;;;;31.23;20.27;;;7.60;99.90;;;;;;4994152;28;20190;-63
2021/04/19 06:12:10;;;;;;;40.42;18.45;;;7.90;99.90;;;;;;4993931;28;20194;-63
2021/04/19 06:14:39;;;;;;;33.45;19.77;;;7.80;99.90;;;;;;4993204;28;20619;-63
2021/04/19 06:17:07;;;;;;;51.45;19.90;;;7.70;99.90;;;;;;4994118;28;20191;-60
2021/04/19 06:19:36;;;;;;;54.75;19.35;;;7.60;99.90;;;;;;4994006;28;20532;-63
2021/04/19 06:22:02;;;;;;;34.50;18.40;;;7.90;99.90;;;;;;4992788;28;20194;-63
2021/04/19 06:24:29;;;;;;;30.88;18.05;;;7.70;99.90;;;;;;4992472;28;20543;-64
2021/04/19 06:26:55;;;;;;;30.58;19.15;;;8.00;99.90;;;;;;4993364;28;20178;-63
2021/04/19 06:29:27;;;;;;;35.67;19.07;;;8.30;99.90;;;;;;4992770;28;20187;-63
2021/04/19 06:31:55;;;;;;;49.65;19.83;;;8.60;99.90;;;;;;4993703;28;20187;-62
2021/04/19 06:34:21;;;;;;;34.95;20.25;;;8.30;99.90;;;;;;4993003;28;20183;-62
2021/04/19 06:36:49;;;;;;;30.00;17.77;;;8.40;99.90;;;;;;4993378;28;20526;-63
2021/04/19 06:39:17;;;;;;;29.48;18.95;;;8.90;99.90;;;;;;4993354;28;20187;-63
2021/04/19 06:41:44;;;;;;;34.80;18.88;;;9.00;99.90;;;;;;4993574;28;20269;-63
2021/04/19 06:44:13;;;;;;;30.45;19.98;;;9.10;99.90;;;;;;4992775;28;20281;-64
2021/04/19 06:46:40;;;;;;;29.58;19.15;;;9.20;99.90;;;;;;4993485;28;20194;-63
2021/04/19 06:49:07;;;;;;;32.15;20.55;;;9.40;99.90;;;;;;4993240;28;20183;-63
2021/04/19 06:51:34;;;;;;;27.80;18.23;;;9.20;99.90;;;;;;4993265;28;20283;-60
2021/04/19 06:54:00;;;;;;;28.48;19.13;;;9.20;99.90;;;;;;4986979;28;20202;-60
2021/04/19 06:56:33;;;;;;;41.22;20.50;;;9.20;99.90;;;;;;5001138;28;20627;-60
2021/04/19 06:58:59;;;;;;;37.88;17.23;;;9.20;99.90;;;;;;4993914;28;20191;-60
2021/04/19 07:01:28;;;;;;;33.43;15.47;;;9.20;99.90;;;;;;4992544;28;20180;-62
2021/04/19 07:04:09;;;;;;;27.30;17.23;;;8.90;99.90;;;;;;4992838;28;20480;-63
2021/04/19 07:06:36;;;;;;;27.85;16.02;;;9.00;99.90;;;;;;4994070;28;20190;-65
2021/04/19 07:09:27;;;;;;;21.38;15.45;;;9.10;99.90;;;;;;4992963;28;20266;-63
2021/04/19 07:12:05;;;;;;;25.75;17.80;;;9.30;99.90;;;;;;4993808;28;20277;-64
2021/04/19 07:14:34;;;;;;;27.10;17.20;;;9.50;99.90;;;;;;4992878;28;20183;-64
2021/04/19 07:17:00;;;;;;;29.50;19.30;;;9.70;99.90;;;;;;4993919;28;20247;-63
2021/04/19 07:19:28;;;;;;;29.53;18.53;;;9.40;35.90;;;;;;4993877;28;20642;-65
2021/04/19 07:21:53;;;;;;;28.63;19.33;;;9.50;73.20;;;;;;4994012;28;20430;-64
2021/04/19 07:24:19;;;;;;;27.03;18.30;;;9.50;78.90;;;;;;4993315;28;20667;-63
2021/04/19 07:26:48;;;;;;;26.10;17.93;;;9.40;99.90;;;;;;4993556;28;20222;-64
2021/04/19 07:29:14;;;;;;;30.50;19.80;;;9.50;99.90;;;;;;4994050;28;20437;-63
2021/04/19 07:31:54;;;;;;;30.40;18.60;;;9.80;99.90;;;;;;4993710;28;20262;-63
2021/04/19 07:34:22;;;;;;;28.60;19.25;;;10.30;99.90;;;;;;4992937;28;20183;-64
2021/04/19 07:36:57;;;;;;;30.52;19.05;;;10.10;1.00;;;;;;4986673;28;20679;-63
2021/04/19 07:39:23;;;;;;;30.15;19.67;;;9.60;1.00;;;;;;4993829;28;20191;-62
2021/04/19 07:41:54;;;;;;;26.08;17.10;;;9.00;99.90;;;;;;4993779;28;20183;-63
2021/04/19 07:44:44;;;;;;;28.02;20.00;;;9.00;99.90;;;;;;4993006;28;20211;-62
2021/04/19 07:47:31;;;;;;;24.63;15.98;;;9.40;99.90;;;;;;4988189;28;20199;-62
2021/04/19 07:50:19;;;;;;;22.63;15.75;;;9.60;99.90;;;;;;4993704;28;20263;-63
2021/04/19 07:52:50;;;;;;;25.55;17.70;;;9.90;99.90;;;;;;4997420;28;20180;-62
2021/04/19 07:55:20;;;;;;;26.75;18.45;;;9.90;99.90;;;;;;4996259;28;20648;-62
2021/04/19 07:57:48;;;;;;;25.00;17.80;;;9.90;47.10;;;;;;4996909;28;20657;-62
2021/04/19 08:00:24;;;;;;;28.23;17.75;;;9.90;58.10;;;;;;4997083;28;20608;-61
2021/04/19 08:03:12;;;;;;;24.27;17.02;;;9.00;99.90;;;;;;4997113;28;20218;-64
2021/04/19 08:05:51;;;;;;;32.25;17.70;;;8.90;99.90;;;;;;4997175;28;20286;-63
2021/04/19 08:08:38;;;;;;;25.60;15.45;;;8.70;99.90;;;;;;4996812;28;20269;-59
2021/04/19 08:11:12;;;;;;;25.05;14.27;;;8.50;99.90;;;;;;4997714;28;20172;-62
2021/04/19 08:13:39;;;;;;;36.83;20.55;;;8.00;99.90;;;;;;4996486;28;20616;-62
2021/04/19 08:16:25;;;;;;;34.70;20.00;;;8.40;99.90;;;;;;4997368;28;20187;-62
2021/04/19 08:18:59;;;;;;;34.75;19.73;;;8.80;99.90;;;;;;4977019;28;20187;-61
2021/04/19 08:21:29;;;;;;;26.25;18.08;;;9.50;99.90;;;;;;4977641;28;20254;-62
2021/04/19 08:23:55;;;;;;;29.58;18.45;;;10.30;99.90;;;;;;4976758;28;20319;-63
2021/04/19 08:26:21;;;;;;;33.20;20.10;;;10.30;1.00;;;;;;4977591;28;20645;-63
2021/04/19 08:28:50;;;;;;;33.13;22.20;;;10.10;1.00;;;;;;4996855;28;20437;-62
2021/04/19 08:31:17;;;;;;;39.15;22.30;;;10.30;1.00;;;;;;4997131;28;20438;-62
2021/04/19 08:33:44;;;;;;;37.80;22.52;;;10.20;1.00;;;;;;4996345;28;20183;-62
2021/04/19 08:36:12;;;;;;;36.55;23.15;;;10.40;1.00;;;;;;4996992;28;20228;-60
2021/04/19 08:38:38;;;;;;;42.00;24.30;;;10.30;1.00;;;;;;4996636;28;20176;-61
2021/04/19 08:41:05;;;;;;;44.92;26.15;;;10.70;1.00;;;;;;4995821;28;20523;-60
2021/04/19 08:43:34;;;;;;;38.03;24.23;;;11.10;1.00;;;;;;4996169;28;20222;-60
2021/04/19 08:46:01;;;;;;;41.28;24.27;;;11.00;99.90;;;;;;4996706;28;20187;-60
2021/04/19 08:48:27;;;;;;;39.67;25.20;;;10.70;1.00;;;;;;4996594;28;20179;-60
2021/04/19 08:50:53;;;;;;;42.38;24.65;;;10.80;99.90;;;;;;4996883;28;20175;-59
2021/04/19 08:53:20;;;;;;;41.67;25.60;;;10.90;99.90;;;;;;5011618;28;20656;-60
2021/04/19 08:55:48;;;;;;;40.78;26.77;;;10.90;1.00;;;;;;4997023;28;20198;-60
2021/04/19 08:58:17;;;;;;;42.75;25.67;;;11.40;1.00;;;;;;4996906;28;20194;-60
2021/04/19 09:00:50;;;;;;;42.63;27.63;;;11.80;99.90;;;;;;4996413;28;20190;-60
2021/04/19 09:03:18;;;;;;;53.17;30.65;;;12.20;1.00;;;;;;4994157;28;20588;-60
2021/04/19 09:05:44;;;;;;;39.03;25.50;;;12.80;1.00;;;;;;4993751;28;20273;-60
2021/04/19 09:08:15;;;;;;;35.92;23.70;;;13.00;99.90;;;;;;5008236;28;20687;-59
2021/04/19 09:10:59;;;;;;;40.83;25.30;;;13.00;1.00;;;;;;4999770;28;20186;-59
2021/04/19 09:13:41;;;;;;;40.90;26.08;;;13.30;99.90;;;;;;4972475;28;20180;-59
2021/04/19 09:16:23;;;;;;;36.60;25.23;;;13.30;99.90;;;;;;4975062;28;20251;-59
2021/04/19 09:18:59;;;;;;;33.85;22.83;;;13.40;99.90;;;;;;4995033;28;20330;-59
2021/04/19 09:21:39;;;;;;;35.45;22.70;;;14.00;1.00;;;;;;4993558;28;20661;-59
2021/04/19 09:24:13;;;;;;;30.02;21.42;;;14.50;1.00;;;;;;4994061;28;20664;-59
2021/04/19 09:26:47;;;;;;;31.20;21.95;;;14.50;99.00;;;;;;4995117;28;20187;-59
2021/04/19 09:29:40;;;;;;;34.58;22.85;;;14.10;99.90;;;;;;4995244;28;20181;-59
2021/04/19 09:32:07;;;;;;;28.90;21.02;;;14.10;58.50;;;;;;4995049;28;20194;-59
2021/04/19 09:34:36;;;;;;;30.08;21.50;;;13.60;99.90;;;;;;4994433;28;20650;-59
2021/04/19 09:37:02;;;;;;;27.90;19.88;;;14.20;99.90;;;;;;4994626;28;20244;-59
2021/04/19 09:39:58;;;;;;;25.60;18.40;;;14.50;99.90;;;;;;4995021;28;20615;-59
2021/04/19 09:43:04;;;;;;;26.27;17.60;;;14.80;1.00;;;;;;4994882;28;20208;-59
2021/04/19 09:45:45;;;;;;;22.05;17.33;;;14.50;1.00;;;;;;4994737;28;20190;-59
2021/04/19 09:48:26;;;;;;;20.30;15.80;;;14.20;1.00;;;;;;4994572;28;20175;-59
2021/04/19 09:50:55;;;;;;;22.77;15.57;;;14.00;99.90;;;;;;4994443;28;20185;-59
2021/04/19 09:53:21;;;;;;;23.42;15.73;;;14.10;1.00;;;;;;4993981;28;20213;-59
2021/04/19 09:55:47;;;;;;;24.77;18.52;;;14.40;1.00;;;;;;4983189;28;20191;-59
2021/04/19 09:58:14;;;;;;;21.43;16.10;;;14.40;1.00;;;;;;4983867;28;20222;-59
2021/04/19 10:00:40;;;;;;;21.83;15.30;;;13.60;1.00;;;;;;4994477;28;20189;-59
2021/04/19 10:03:06;;;;;;;20.97;16.17;;;12.70;1.00;;;;;;4993727;28;20212;-60
2021/04/19 10:05:33;;;;;;;23.60;16.50;;;12.80;99.90;;;;;;4991209;28;20184;-60
2021/04/19 10:08:01;;;;;;;21.98;14.13;;;13.40;99.90;;;;;;4997327;28;20443;-59
2021/04/19 10:10:27;;;;;;;19.45;14.07;;;14.20;1.00;;;;;;4997582;28;20233;-62
2021/04/19 10:12:53;;;;;;;23.88;13.85;;;13.60;1.00;;;;;;5002438;28;20192;-63
2021/04/19 10:15:22;;;;;;;19.67;13.87;;;14.00;99.90;;;;;;4995904;28;20192;-63
2021/04/19 10:17:49;;;;;;;18.10;13.57;;;14.80;1.00;;;;;;4994443;28;20804;-62
2021/04/19 10:20:25;;;;;;;15.65;13.05;;;15.30;8.10;;;;;;4994887;28;20707;-63
2021/04/19 10:23:12;;;;;;;16.83;12.88;;;14.70;1.00;;;;;;4995028;28;20554;-62
2021/04/19 10:25:50;;;;;;;21.63;13.90;;;14.10;99.90;;;;;;4994883;28;20196;-62
2021/04/19 10:28:32;;;;;;;18.20;13.13;;;14.10;1.00;;;;;;4994899;28;20204;-62
2021/04/19 10:31:20;;;;;;;19.73;13.88;;;14.10;49.50;;;;;;4994664;28;20278;-62
2021/04/19 10:33:52;;;;;;;18.17;12.38;;;13.90;99.90;;;;;;4994562;28;20185;-59
2021/04/19 10:36:26;;;;;;;21.15;14.73;;;14.60;20.60;;;;;;4994941;28;20235;-61
2021/04/19 10:38:55;;;;;;;18.48;12.95;;;14.60;99.90;;;;;;4995913;28;20193;-61
2021/04/19 10:41:31;;;;;;;17.25;13.35;;;14.30;1.00;;;;;;4994793;28;20193;-60
2021/04/19 10:43:57;;;;;;;16.83;12.63;;;13.80;1.00;;;;;;4994236;28;20541;-60
2021/04/19 10:46:28;;;;;;;17.77;13.40;;;13.20;1.00;;;;;;4994657;28;20226;-64
2021/04/19 10:48:56;;;;;;;15.20;11.88;;;13.40;99.90;;;;;;4994446;28;20460;-60
2021/04/19 10:51:24;;;;;;;17.15;12.90;;;13.80;99.90;;;;;;4993804;28;20211;-62
2021/04/19 10:53:51;;;;;;;17.17;12.73;;;14.20;1.00;;;;;;4994030;28;20293;-63
2021/04/19 10:56:22;;;;;;;17.65;13.82;;;13.80;1.00;;;;;;4994405;28;20205;-62
2021/04/19 10:58:59;;;;;;;17.65;12.43;;;13.90;1.00;;;;;;5005089;28;20200;-63
2021/04/19 11:01:30;;;;;;;17.20;12.50;;;14.40;1.00;;;;;;4998241;28;20202;-64
2021/04/19 11:03:57;;;;;;;15.75;11.98;;;14.30;99.90;;;;;;4995289;28;20207;-65
2021/04/19 11:06:22;;;;;;;15.73;12.77;;;14.40;99.90;;;;;;5008916;28;20177;-64
2021/04/19 11:09:08;;;;;;;16.50;13.40;;;14.10;1.00;;;;;;5001342;28;20622;-63
2021/04/19 11:11:39;;;;;;;18.55;14.32;;;14.30;99.90;;;;;;5013528;28;20233;-63
2021/04/19 11:14:16;;;;;;;17.35;13.20;;;14.50;99.90;;;;;;5012372;28;20267;-63
2021/04/19 11:16:53;;;;;;;16.15;13.48;;;14.80;1.00;;;;;;5010747;28;20244;-63
2021/04/19 11:19:42;;;;;;;19.75;14.32;;;14.70;1.00;;;;;;4993799;28;20190;-63
2021/04/19 11:22:27;;;;;;;17.10;13.65;;;14.60;1.00;;;;;;4993768;28;20686;-64
2021/04/19 11:24:54;;;;;;;16.73;12.57;;;14.70;99.90;;;;;;4993586;28;20850;-63
2021/04/19 11:27:27;;;;;;;16.02;13.63;;;14.60;1.00;;;;;;5017234;28;20502;-65
2021/04/19 11:29:53;;;;;;;15.35;12.68;;;14.40;24.00;;;;;;5016999;28;20184;-61
2021/04/19 11:32:33;;;;;;;16.25;12.27;;;14.70;1.00;;;;;;5016882;28;20184;-64
2021/04/19 11:35:01;;;;;;;18.42;13.45;;;15.00;1.00;;;;;;5016052;28;20196;-62
2021/04/19 11:37:38;;;;;;;17.38;14.25;;;14.20;99.90;;;;;;5016931;28;20200;-63
2021/04/19 11:40:24;;;;;;;18.27;13.55;;;14.20;1.00;;;;;;5017235;28;20215;-63
2021/04/19 11:42:49;;;;;;;18.08;14.55;;;14.00;1.00;;;;;;5016631;28;20576;-62
2021/04/19 11:45:23;;;;;;;16.40;13.40;;;14.80;1.00;;;;;;5014851;28;20177;-63
2021/04/19 11:47:49;;;;;;;18.08;13.02;;;14.80;99.90;;;;;;5016136;28;20262;-63
2021/04/19 11:50:15;;;;;;;18.67;13.95;;;14.80;99.90;;;;;;5016392;28;20515;-63
2021/04/19 11:52:50;;;;;;;15.50;12.67;;;14.70;1.00;;;;;;5016820;28;20269;-62
2021/04/19 11:55:17;;;;;;;14.60;12.55;;;15.10;54.90;;;;;;5009653;28;20903;-64
2021/04/19 11:57:43;;;;;;;17.88;13.90;;;14.70;1.00;;;;;;4996206;28;20197;-63
2021/04/19 12:00:10;;;;;;;17.15;13.68;;;14.80;99.90;;;;;;4996804;28;20182;-66
2021/04/19 12:02:36;;;;;;;16.67;12.82;;;15.30;9.30;;;;;;4997184;28;20221;-65
2021/04/19 12:05:06;;;;;;;18.23;13.00;;;15.60;99.90;;;;;;4996643;28;20675;-66
2021/04/19 12:07:35;;;;;;;15.90;12.88;;;15.80;1.00;;;;;;4997547;28;20187;-64
2021/04/19 12:10:02;;;;;;;18.33;13.30;;;16.10;99.90;;;;;;4996863;28;20183;-63
2021/04/19 12:12:28;;;;;;;13.17;10.20;;;16.20;99.90;;;;;;4996679;28;20483;-63
2021/04/19 12:14:54;;;;;;;12.23;10.67;;;16.40;99.90;;;;;;4996290;28;20524;-63
2021/04/19 12:17:20;;;;;;;15.33;12.07;;;16.40;1.00;;;;;;4996643;28;20341;-61
2021/04/19 12:19:45;;;;;;;13.80;12.40;;;16.20;1.00;;;;;;4995508;28;20833;-62
2021/04/19 12:22:11;;;;;;;13.10;11.77;;;16.20;99.90;;;;;;4996316;28;20477;-62
2021/04/19 12:24:37;;;;;;;17.90;12.63;;;15.70;99.90;;;;;;4995589;28;20330;-64
2021/04/19 12:27:03;;;;;;;13.33;11.80;;;15.50;1.00;;;;;;4996075;28;20415;-64
2021/04/19 12:29:29;;;;;;;14.63;12.50;;;15.90;99.90;;;;;;4996200;28;20233;-65
2021/04/19 12:31:55;;;;;;;12.10;10.80;;;16.00;99.90;;;;;;4996315;28;20434;-65
2021/04/19 12:34:20;;;;;;;12.77;11.37;;;16.20;99.90;;;;;;4995939;28;20202;-63
2021/04/19 12:36:46;;;;;;;14.10;10.70;;;16.60;57.40;;;;;;4995165;28;20899;-63
2021/04/19 12:39:13;;;;;;;12.90;10.90;;;16.80;1.00;;;;;;4996459;28;20198;-63
2021/04/19 12:41:38;;;;;;;14.80;11.73;;;16.90;1.00;;;;;;4995504;28;20435;-62
2021/04/19 12:44:05;;;;;;;13.40;11.27;;;16.30;99.90;;;;;;4995334;28;20551;-62
2021/04/19 12:46:30;;;;;;;12.03;10.27;;;16.20;1.00;;;;;;4995629;28;20437;-63
2021/04/19 12:48:57;;;;;;;12.90;10.87;;;15.80;1.00;;;;;;4995844;28;20445;-64
2021/04/19 12:51:26;;;;;;;13.53;10.70;;;15.50;99.90;;;;;;4995887;28;20532;-65